createdAt,value
2017-03-13T00:00:39.608Z,14.06
2017-03-13T00:01:20.105Z,14.06
2017-03-13T00:02:00.594Z,14.06
2017-03-13T00:02:41.255Z,14.06
2017-03-13T00:03:21.747Z,14.06
2017-03-13T00:04:02.242Z,13.96
2017-03-13T00:04:42.737Z,13.96
2017-03-13T00:05:23.224Z,13.87
2017-03-13T00:06:03.704Z,13.96
2017-03-13T00:06:44.195Z,14.06
2017-03-13T00:07:24.698Z,14.06
2017-03-13T00:08:05.174Z,13.96
2017-03-13T00:08:45.660Z,14.06
2017-03-13T00:09:26.147Z,13.96
2017-03-13T00:10:06.640Z,14.06
2017-03-13T00:10:47.131Z,14.06
2017-03-13T00:11:27.597Z,13.96
2017-03-13T00:12:08.102Z,14.06
2017-03-13T00:12:48.593Z,13.87
2017-03-13T00:13:29.086Z,13.96
2017-03-13T00:14:09.577Z,14.06
2017-03-13T00:14:50.050Z,13.96
2017-03-13T00:15:30.542Z,13.87
2017-03-13T00:16:11.039Z,13.87
2017-03-13T00:16:51.538Z,14.06
2017-03-13T00:17:32.008Z,14.06
2017-03-13T00:18:12.485Z,13.96
2017-03-13T00:18:52.970Z,14.06
2017-03-13T00:19:33.471Z,14.06
2017-03-13T00:20:13.933Z,14.06
2017-03-13T00:20:54.446Z,14.06
2017-03-13T00:21:34.946Z,14.06
2017-03-13T00:22:15.437Z,14.15
2017-03-13T00:22:55.948Z,13.67
2017-03-13T00:23:36.423Z,13.67
2017-03-13T00:24:16.912Z,14.06
2017-03-13T00:24:57.402Z,14.06
2017-03-13T00:25:37.893Z,14.06
2017-03-13T00:26:18.401Z,13.96
2017-03-13T00:26:58.886Z,14.06
2017-03-13T00:27:39.378Z,13.96
2017-03-13T00:28:19.877Z,14.06
2017-03-13T00:29:00.362Z,14.06
2017-03-13T00:29:40.863Z,13.87
2017-03-13T00:30:21.360Z,14.06
2017-03-13T00:31:01.845Z,13.87
2017-03-13T00:31:42.353Z,14.06
2017-03-13T00:32:22.846Z,14.06
2017-03-13T00:33:03.337Z,14.06
2017-03-13T00:33:43.822Z,14.06
2017-03-13T00:34:24.308Z,14.15
2017-03-13T00:35:04.786Z,13.96
2017-03-13T00:35:45.288Z,14.06
2017-03-13T00:36:25.775Z,13.96
2017-03-13T00:37:06.257Z,14.15
2017-03-13T00:37:46.755Z,14.15
2017-03-13T00:38:27.253Z,14.06
2017-03-13T00:39:07.736Z,13.77
2017-03-13T00:39:48.230Z,14.06
2017-03-13T00:40:28.726Z,14.15
2017-03-13T00:41:09.225Z,14.15
2017-03-13T00:41:49.720Z,13.96
2017-03-13T00:42:30.214Z,14.06
2017-03-13T00:43:10.702Z,13.96
2017-03-13T00:43:51.222Z,14.06
2017-03-13T00:44:31.735Z,13.96
2017-03-13T00:45:12.219Z,13.96
2017-03-13T00:45:52.702Z,14.06
2017-03-13T00:46:33.198Z,14.06
2017-03-13T00:47:13.694Z,14.15
2017-03-13T00:47:54.174Z,13.87
2017-03-13T00:48:35.176Z,13.87
2017-03-13T00:49:15.661Z,14.06
2017-03-13T00:49:56.159Z,14.06
2017-03-13T00:50:36.658Z,14.06
2017-03-13T00:51:17.139Z,14.06
2017-03-13T00:51:57.624Z,14.06
2017-03-13T00:52:38.136Z,14.06
2017-03-13T00:53:18.624Z,14.06
2017-03-13T00:53:59.139Z,14.06
2017-03-13T00:54:39.594Z,14.06
2017-03-13T00:55:20.090Z,14.15
2017-03-13T00:56:00.653Z,13.87
2017-03-13T00:56:41.149Z,14.06
2017-03-13T00:57:21.628Z,14.06
2017-03-13T00:58:02.110Z,14.06
2017-03-13T00:58:42.609Z,13.87
2017-03-13T00:59:23.105Z,13.87
2017-03-13T01:00:03.613Z,14.06
2017-03-13T01:00:44.104Z,14.06
2017-03-13T01:01:24.603Z,14.06
2017-03-13T01:02:05.086Z,13.87
2017-03-13T01:02:45.589Z,14.06
2017-03-13T01:03:27.104Z,14.06
2017-03-13T01:04:06.856Z,13.87
2017-03-13T01:04:47.339Z,14.06
2017-03-13T01:05:27.839Z,13.96
2017-03-13T01:06:08.323Z,13.96
2017-03-13T01:06:48.821Z,13.96
2017-03-13T01:07:29.305Z,14.06
2017-03-13T01:08:09.815Z,14.15
2017-03-13T01:08:50.299Z,14.06
2017-03-13T01:09:30.784Z,13.96
2017-03-13T01:10:11.280Z,14.05
2017-03-13T01:10:51.775Z,13.96
2017-03-13T01:11:32.267Z,14.06
2017-03-13T01:12:12.744Z,13.96
2017-03-13T01:12:53.250Z,14.06
2017-03-13T01:13:33.749Z,14.15
2017-03-13T01:14:14.231Z,14.06
2017-03-13T01:14:54.713Z,13.87
2017-03-13T01:15:35.201Z,13.96
2017-03-13T01:16:15.691Z,14.06
2017-03-13T01:16:56.182Z,13.96
2017-03-13T01:17:36.666Z,13.96
2017-03-13T01:18:17.147Z,14.06
2017-03-13T01:18:57.657Z,14.15
2017-03-13T01:19:38.124Z,14.15
2017-03-13T01:20:18.606Z,13.96
2017-03-13T01:20:59.079Z,13.67
2017-03-13T01:21:39.592Z,14.15
2017-03-13T01:22:20.080Z,13.86
2017-03-13T01:23:00.575Z,13.96
2017-03-13T01:23:41.070Z,14.05
2017-03-13T01:24:21.552Z,14.05
2017-03-13T01:25:02.044Z,14.06
2017-03-13T01:25:42.525Z,14.06
2017-03-13T01:26:23.016Z,14.06
2017-03-13T01:27:03.496Z,14.06
2017-03-13T01:27:43.973Z,14.15
2017-03-13T01:28:24.474Z,14.15
2017-03-13T01:29:04.969Z,13.76
2017-03-13T01:29:45.466Z,14.05
2017-03-13T01:30:25.958Z,13.86
2017-03-13T01:31:06.437Z,13.96
2017-03-13T01:31:46.933Z,13.96
2017-03-13T01:32:27.417Z,13.96
2017-03-13T01:33:07.903Z,14.06
2017-03-13T01:33:48.386Z,13.96
2017-03-13T01:34:28.887Z,14.06
2017-03-13T01:35:09.392Z,14.06
2017-03-13T01:35:49.871Z,13.87
2017-03-13T01:36:30.373Z,14.05
2017-03-13T01:37:10.882Z,14.05
2017-03-13T01:37:51.385Z,13.96
2017-03-13T01:38:31.868Z,14.05
2017-03-13T01:39:12.348Z,13.96
2017-03-13T01:39:52.834Z,13.87
2017-03-13T01:40:33.324Z,14.06
2017-03-13T01:41:13.820Z,13.96
2017-03-13T01:41:54.312Z,13.96
2017-03-13T01:42:34.791Z,13.96
2017-03-13T01:43:15.292Z,13.86
2017-03-13T01:43:55.771Z,14.05
2017-03-13T01:44:36.360Z,14.05
2017-03-13T01:45:16.850Z,14.15
2017-03-13T01:45:57.365Z,14.15
2017-03-13T01:46:37.850Z,14.15
2017-03-13T01:47:18.345Z,14.15
2017-03-13T01:47:58.818Z,14.15
2017-03-13T01:48:39.300Z,14.05
2017-03-13T01:49:19.788Z,14.06
2017-03-13T01:50:00.272Z,13.87
2017-03-13T01:50:40.766Z,13.96
2017-03-13T01:51:21.256Z,13.96
2017-03-13T01:52:01.733Z,14.05
2017-03-13T01:52:42.210Z,13.96
2017-03-13T01:53:22.712Z,13.96
2017-03-13T01:54:03.208Z,14.15
2017-03-13T01:54:43.699Z,14.15
2017-03-13T01:55:24.183Z,14.06
2017-03-13T01:56:04.682Z,13.96
2017-03-13T01:56:45.177Z,13.87
2017-03-13T01:57:25.659Z,14.15
2017-03-13T01:58:06.159Z,13.86
2017-03-13T01:58:46.636Z,13.77
2017-03-13T01:59:27.124Z,14.15
2017-03-13T02:00:07.610Z,14.15
2017-03-13T02:00:48.084Z,13.86
2017-03-13T02:01:28.572Z,13.76
2017-03-13T02:02:09.210Z,14.15
2017-03-13T02:02:49.695Z,13.67
2017-03-13T02:03:30.175Z,14.15
2017-03-13T02:04:10.676Z,13.76
2017-03-13T02:04:51.780Z,14.05
2017-03-13T02:05:32.271Z,14.05
2017-03-13T02:06:12.754Z,13.96
2017-03-13T02:06:53.236Z,13.87
2017-03-13T02:07:34.409Z,13.96
2017-03-13T02:08:14.917Z,14.05
2017-03-13T02:08:55.376Z,14.15
2017-03-13T02:09:36.511Z,14.15
2017-03-13T02:10:16.883Z,13.96
2017-03-13T02:10:57.381Z,14.15
2017-03-13T02:11:37.910Z,14.15
2017-03-13T02:12:18.407Z,13.77
2017-03-13T02:12:58.906Z,13.87
2017-03-13T02:13:39.387Z,13.86
2017-03-13T02:14:19.879Z,13.86
2017-03-13T02:15:00.370Z,13.96
2017-03-13T02:15:40.827Z,13.76
2017-03-13T02:16:21.350Z,14.15
2017-03-13T02:17:01.838Z,13.67
2017-03-13T02:17:42.328Z,13.96
2017-03-13T02:18:22.824Z,13.67
2017-03-13T02:19:03.340Z,13.86
2017-03-13T02:19:43.817Z,13.77
2017-03-13T02:20:24.445Z,14.05
2017-03-13T02:21:04.936Z,13.76
2017-03-13T02:21:45.428Z,14.15
2017-03-13T02:22:25.908Z,14.06
2017-03-13T02:23:06.409Z,13.96
2017-03-13T02:23:46.903Z,13.76
2017-03-13T02:24:27.399Z,13.77
2017-03-13T02:25:07.883Z,13.96
2017-03-13T02:25:48.375Z,13.86
2017-03-13T02:26:28.855Z,13.87
2017-03-13T02:27:09.346Z,14.05
2017-03-13T02:27:49.865Z,13.96
2017-03-13T02:28:30.348Z,13.76
2017-03-13T02:29:10.844Z,13.96
2017-03-13T02:29:51.321Z,13.86
2017-03-13T02:30:31.796Z,14.05
2017-03-13T02:31:12.285Z,13.67
2017-03-13T02:31:52.789Z,13.76
2017-03-13T02:32:33.259Z,14.06
2017-03-13T02:33:13.745Z,13.87
2017-03-13T02:33:54.238Z,14.15
2017-03-13T02:34:34.734Z,13.67
2017-03-13T02:35:15.230Z,13.86
2017-03-13T02:35:55.708Z,13.67
2017-03-13T02:36:36.193Z,13.96
2017-03-13T02:37:16.687Z,14.05
2017-03-13T02:37:57.181Z,13.86
2017-03-13T02:38:37.683Z,13.96
2017-03-13T02:39:18.161Z,13.86
2017-03-13T02:39:58.644Z,13.86
2017-03-13T02:40:39.674Z,14.15
2017-03-13T02:41:20.161Z,13.86
2017-03-13T02:42:00.641Z,13.96
2017-03-13T02:42:41.169Z,13.86
2017-03-13T02:43:21.644Z,13.76
2017-03-13T02:44:02.154Z,13.86
2017-03-13T02:44:42.642Z,13.67
2017-03-13T02:45:23.148Z,13.67
2017-03-13T02:46:03.640Z,13.76
2017-03-13T02:46:44.115Z,13.96
2017-03-13T02:47:24.609Z,13.86
2017-03-13T02:48:05.087Z,13.96
2017-03-13T02:48:45.573Z,13.67
2017-03-13T02:49:26.059Z,13.86
2017-03-13T02:50:06.531Z,13.96
2017-03-13T02:50:47.025Z,13.86
2017-03-13T02:51:27.505Z,13.76
2017-03-13T02:52:07.981Z,13.67
2017-03-13T02:52:48.460Z,13.76
2017-03-13T02:53:28.946Z,13.86
2017-03-13T02:54:09.429Z,13.76
2017-03-13T02:54:49.912Z,13.67
2017-03-13T02:55:30.525Z,13.67
2017-03-13T02:56:10.992Z,13.76
2017-03-13T02:56:51.483Z,13.76
2017-03-13T02:57:31.977Z,13.67
2017-03-13T02:58:12.469Z,13.76
2017-03-13T02:58:52.949Z,13.96
2017-03-13T02:59:33.441Z,13.76
2017-03-13T03:00:13.928Z,13.86
2017-03-13T03:00:54.418Z,13.86
2017-03-13T03:01:34.876Z,13.96
2017-03-13T03:02:15.365Z,13.57
2017-03-13T03:02:55.844Z,13.76
2017-03-13T03:03:36.339Z,13.67
2017-03-13T03:04:16.843Z,13.67
2017-03-13T03:04:57.370Z,13.86
2017-03-13T03:05:37.830Z,13.67
2017-03-13T03:06:18.314Z,13.76
2017-03-13T03:06:58.810Z,13.67
2017-03-13T03:07:39.311Z,13.57
2017-03-13T03:08:19.799Z,13.67
2017-03-13T03:09:00.288Z,13.57
2017-03-13T03:09:40.778Z,13.38
2017-03-13T03:10:21.271Z,13.38
2017-03-13T03:11:01.764Z,13.38
2017-03-13T03:11:42.265Z,13.96
2017-03-13T03:12:22.753Z,13.86
2017-03-13T03:13:03.254Z,13.48
2017-03-13T03:13:43.746Z,13.86
2017-03-13T03:14:24.224Z,13.57
2017-03-13T03:15:04.724Z,13.96
2017-03-13T03:15:45.608Z,13.48
2017-03-13T03:16:25.896Z,13.67
2017-03-13T03:17:06.378Z,13.57
2017-03-13T03:17:46.859Z,13.67
2017-03-13T03:18:27.362Z,13.57
2017-03-13T03:19:07.848Z,13.57
2017-03-13T03:19:48.364Z,13.67
2017-03-13T03:20:28.849Z,13.38
2017-03-13T03:21:09.342Z,13.38
2017-03-13T03:21:49.838Z,13.48
2017-03-13T03:22:30.316Z,13.38
2017-03-13T03:23:10.840Z,13.38
2017-03-13T03:23:51.321Z,13.57
2017-03-13T03:24:31.822Z,14.05
2017-03-13T03:25:12.296Z,13.57
2017-03-13T03:25:52.788Z,13.67
2017-03-13T03:26:33.271Z,13.57
2017-03-13T03:27:13.774Z,13.67
2017-03-13T03:27:54.256Z,13.96
2017-03-13T03:28:34.732Z,13.57
2017-03-13T03:30:52.631Z,13.57
2017-03-13T03:31:33.606Z,13.57
2017-03-13T03:32:14.709Z,13.57
2017-03-13T03:32:55.219Z,13.76
2017-03-13T03:33:35.708Z,13.96
2017-03-13T03:34:16.206Z,13.57
2017-03-13T03:34:56.685Z,13.76
2017-03-13T03:35:37.148Z,13.96
2017-03-13T03:36:17.650Z,13.67
2017-03-13T03:36:58.135Z,13.57
2017-03-13T03:37:38.614Z,13.76
2017-03-13T03:38:19.135Z,13.67
2017-03-13T03:38:59.620Z,13.38
2017-03-13T03:39:40.099Z,13.38
2017-03-13T03:40:20.582Z,13.38
2017-03-13T03:41:01.097Z,13.48
2017-03-13T03:41:41.587Z,13.57
2017-03-13T03:42:22.080Z,13.57
2017-03-13T03:43:02.549Z,13.48
2017-03-13T03:43:43.114Z,13.86
2017-03-13T03:44:23.611Z,13.57
2017-03-13T03:45:04.097Z,13.38
2017-03-13T03:45:44.581Z,13.96
2017-03-13T03:46:25.073Z,13.76
2017-03-13T03:47:05.572Z,13.67
2017-03-13T03:47:46.044Z,13.57
2017-03-13T03:48:26.539Z,13.76
2017-03-13T03:49:07.019Z,13.76
2017-03-13T03:49:47.504Z,13.67
2017-03-13T03:50:27.995Z,13.67
2017-03-13T03:51:08.477Z,13.67
2017-03-13T03:51:49.454Z,13.67
2017-03-13T03:52:29.979Z,13.96
2017-03-13T03:53:10.459Z,13.57
2017-03-13T03:53:50.949Z,13.57
2017-03-13T03:54:31.432Z,13.38
2017-03-13T03:55:11.943Z,13.38
2017-03-13T03:55:52.420Z,13.57
2017-03-13T03:56:32.942Z,13.48
2017-03-13T03:57:13.425Z,13.57
2017-03-13T03:57:53.938Z,13.57
2017-03-13T03:58:34.427Z,13.57
2017-03-13T03:59:14.924Z,13.48
2017-03-13T03:59:55.536Z,13.48
2017-03-13T04:00:36.022Z,13.57
2017-03-13T04:01:16.504Z,13.48
2017-03-13T04:01:57.169Z,13.57
2017-03-13T04:02:37.659Z,13.48
2017-03-13T04:03:18.153Z,13.38
2017-03-13T04:03:58.637Z,13.96
2017-03-13T04:04:39.137Z,13.48
2017-03-13T04:05:19.626Z,13.48
2017-03-13T04:06:00.118Z,13.48
2017-03-13T04:06:40.694Z,13.57
2017-03-13T04:07:21.174Z,13.48
2017-03-13T04:08:01.683Z,13.38
2017-03-13T04:08:42.171Z,13.57
2017-03-13T04:09:22.685Z,13.48
2017-03-13T04:10:03.176Z,13.57
2017-03-13T04:10:43.669Z,13.67
2017-03-13T04:11:24.181Z,13.67
2017-03-13T04:12:04.656Z,13.86
2017-03-13T04:12:45.174Z,13.38
2017-03-13T04:13:25.633Z,13.48
2017-03-13T04:14:06.125Z,13.57
2017-03-13T04:14:46.610Z,13.57
2017-03-13T04:15:27.094Z,13.57
2017-03-13T04:16:07.583Z,13.57
2017-03-13T04:16:48.653Z,13.57
2017-03-13T04:17:29.153Z,13.38
2017-03-13T04:18:09.656Z,13.48
2017-03-13T04:18:50.125Z,13.57
2017-03-13T04:19:30.641Z,13.48
2017-03-13T04:20:11.122Z,13.67
2017-03-13T04:20:51.637Z,13.48
2017-03-13T04:21:32.127Z,13.38
2017-03-13T04:22:13.158Z,13.48
2017-03-13T04:22:53.648Z,13.48
2017-03-13T04:23:34.146Z,13.38
2017-03-13T04:24:14.633Z,13.28
2017-03-13T04:24:55.159Z,13.48
2017-03-13T04:25:35.631Z,13.67
2017-03-13T04:26:16.129Z,13.48
2017-03-13T04:26:56.627Z,13.48
2017-03-13T04:27:37.138Z,13.57
2017-03-13T04:28:17.629Z,13.57
2017-03-13T04:28:58.122Z,13.57
2017-03-13T04:29:38.603Z,13.48
2017-03-13T04:30:19.078Z,13.48
2017-03-13T04:30:59.584Z,13.48
2017-03-13T04:31:40.076Z,13.57
2017-03-13T04:32:20.557Z,13.48
2017-03-13T04:33:01.032Z,13.48
2017-03-13T04:33:41.523Z,13.48
2017-03-13T04:34:22.013Z,13.57
2017-03-13T04:35:02.495Z,13.57
2017-03-13T04:35:42.988Z,13.67
2017-03-13T04:36:23.621Z,13.48
2017-03-13T04:37:04.106Z,13.48
2017-03-13T04:37:44.591Z,13.48
2017-03-13T04:38:25.073Z,13.48
2017-03-13T04:39:05.562Z,13.57
2017-03-13T04:39:46.043Z,13.48
2017-03-13T04:40:26.521Z,13.57
2017-03-13T04:41:07.027Z,13.38
2017-03-13T04:41:47.517Z,13.48
2017-03-13T04:42:28.033Z,13.57
2017-03-13T04:43:08.514Z,13.57
2017-03-13T04:43:49.013Z,13.48
2017-03-13T04:44:29.487Z,13.57
2017-03-13T04:45:09.964Z,13.67
2017-03-13T04:45:50.470Z,13.48
2017-03-13T04:46:31.482Z,13.57
2017-03-13T04:47:12.887Z,13.57
2017-03-13T04:47:53.756Z,13.48
2017-03-13T04:48:34.245Z,13.48
2017-03-13T04:49:14.751Z,13.48
2017-03-13T04:49:55.244Z,14.05
2017-03-13T04:50:35.735Z,13.48
2017-03-13T04:51:16.223Z,13.48
2017-03-13T04:51:56.704Z,13.48
2017-03-13T04:52:37.203Z,13.48
2017-03-13T04:53:17.690Z,13.48
2017-03-13T04:53:58.207Z,13.48
2017-03-13T04:54:38.697Z,13.57
2017-03-13T04:55:19.183Z,13.57
2017-03-13T04:55:59.669Z,13.48
2017-03-13T04:56:40.150Z,13.48
2017-03-13T04:57:20.644Z,13.57
2017-03-13T04:58:01.132Z,13.57
2017-03-13T04:58:41.634Z,13.57
2017-03-13T04:59:22.131Z,13.57
2017-03-13T05:00:02.634Z,13.67
2017-03-13T05:00:43.130Z,13.48
2017-03-13T05:01:23.610Z,13.57
2017-03-13T05:02:04.108Z,13.57
2017-03-13T05:02:44.933Z,13.57
2017-03-13T05:03:25.434Z,13.57
2017-03-13T05:04:05.923Z,13.48
2017-03-13T05:04:46.415Z,13.48
2017-03-13T05:05:26.896Z,13.48
2017-03-13T05:06:07.400Z,13.48
2017-03-13T05:06:47.883Z,13.57
2017-03-13T05:07:28.399Z,13.57
2017-03-13T05:08:08.883Z,13.48
2017-03-13T05:08:49.382Z,13.48
2017-03-13T05:09:29.882Z,13.57
2017-03-13T05:10:10.365Z,13.48
2017-03-13T05:10:50.851Z,13.57
2017-03-13T05:11:31.340Z,13.48
2017-03-13T05:12:12.780Z,13.57
2017-03-13T05:12:53.275Z,13.57
2017-03-13T05:13:33.797Z,13.57
2017-03-13T05:14:14.269Z,13.67
2017-03-13T05:14:54.766Z,13.67
2017-03-13T05:15:35.247Z,13.48
2017-03-13T05:16:15.742Z,13.57
2017-03-13T05:16:56.225Z,13.57
2017-03-13T05:17:36.705Z,13.67
2017-03-13T05:18:17.482Z,13.48
2017-03-13T05:18:57.975Z,13.57
2017-03-13T05:19:38.453Z,13.57
2017-03-13T05:20:18.970Z,13.48
2017-03-13T05:20:59.453Z,13.57
2017-03-13T05:21:39.962Z,13.48
2017-03-13T05:22:21.381Z,13.48
2017-03-13T05:23:02.246Z,13.48
2017-03-13T05:23:42.738Z,13.48
2017-03-13T05:24:23.255Z,13.48
2017-03-13T05:25:03.714Z,13.57
2017-03-13T05:25:44.198Z,13.57
2017-03-13T05:26:24.672Z,13.48
2017-03-13T05:27:05.166Z,13.57
2017-03-13T05:27:45.662Z,13.86
2017-03-13T05:28:26.137Z,13.67
2017-03-13T05:29:06.615Z,13.57
2017-03-13T05:29:47.106Z,13.57
2017-03-13T05:30:27.589Z,13.57
2017-03-13T05:31:08.078Z,13.48
2017-03-13T05:31:48.567Z,13.57
2017-03-13T05:32:29.595Z,13.57
2017-03-13T05:33:10.088Z,13.57
2017-03-13T05:33:50.582Z,13.38
2017-03-13T05:34:31.068Z,13.48
2017-03-13T05:35:11.550Z,13.48
2017-03-13T05:35:52.030Z,13.57
2017-03-13T05:36:32.512Z,13.48
2017-03-13T05:37:12.996Z,13.67
2017-03-13T05:37:53.515Z,13.48
2017-03-13T05:38:34.011Z,13.57
2017-03-13T05:39:14.493Z,13.57
2017-03-13T05:39:54.969Z,13.57
2017-03-13T05:40:35.460Z,13.67
2017-03-13T05:41:16.029Z,13.76
2017-03-13T05:41:56.730Z,13.48
2017-03-13T05:42:37.231Z,13.57
2017-03-13T05:43:17.718Z,13.57
2017-03-13T05:43:58.320Z,13.48
2017-03-13T05:44:41.044Z,13.57
2017-03-13T05:45:21.537Z,13.48
2017-03-13T05:46:02.107Z,13.48
2017-03-13T05:46:46.784Z,13.48
2017-03-13T05:47:27.747Z,13.57
2017-03-13T05:48:07.566Z,13.57
2017-03-13T05:48:49.488Z,13.57
2017-03-13T05:49:29.964Z,13.48
2017-03-13T05:50:10.560Z,13.57
2017-03-13T05:50:52.069Z,13.57
2017-03-13T05:51:33.097Z,13.67
2017-03-13T05:52:13.582Z,13.57
2017-03-13T05:52:54.074Z,13.48
2017-03-13T05:53:34.945Z,13.57
2017-03-13T05:54:15.441Z,13.57
2017-03-13T05:54:55.946Z,13.57
2017-03-13T05:55:36.436Z,13.57
2017-03-13T05:56:16.935Z,13.67
2017-03-13T05:56:57.426Z,13.57
2017-03-13T05:57:39.228Z,13.76
2017-03-13T05:58:18.836Z,13.67
2017-03-13T05:58:59.862Z,13.67
2017-03-13T05:59:40.535Z,13.67
2017-03-13T06:00:21.024Z,13.67
2017-03-13T06:01:01.520Z,13.57
2017-03-13T06:01:42.781Z,13.57
2017-03-13T06:02:22.734Z,13.67
2017-03-13T06:03:03.212Z,13.48
2017-03-13T06:03:43.845Z,13.48
2017-03-13T06:04:24.251Z,13.67
2017-03-13T06:05:04.735Z,13.67
2017-03-13T06:05:45.237Z,13.57
2017-03-13T06:06:25.721Z,13.48
2017-03-13T06:07:06.205Z,13.48
2017-03-13T06:07:46.701Z,13.48
2017-03-13T06:08:27.181Z,13.57
2017-03-13T06:09:07.679Z,13.48
2017-03-13T06:09:48.183Z,13.57
2017-03-13T06:10:28.671Z,13.57
2017-03-13T06:11:09.156Z,13.57
2017-03-13T06:11:49.654Z,13.67
2017-03-13T06:12:30.142Z,13.57
2017-03-13T06:13:10.626Z,13.48
2017-03-13T06:13:51.112Z,13.67
2017-03-13T06:14:31.605Z,13.57
2017-03-13T06:15:12.094Z,13.67
2017-03-13T06:15:52.588Z,13.57
2017-03-13T06:16:33.078Z,13.57
2017-03-13T06:17:13.576Z,13.57
2017-03-13T06:17:54.058Z,13.67
2017-03-13T06:18:34.545Z,13.67
2017-03-13T06:19:15.050Z,13.57
2017-03-13T06:19:55.546Z,13.57
2017-03-13T06:20:36.036Z,13.57
2017-03-13T06:21:16.523Z,13.48
2017-03-13T06:21:57.002Z,13.39
2017-03-13T06:22:37.496Z,13.57
2017-03-13T06:23:17.989Z,13.39
2017-03-13T06:23:58.480Z,13.48
2017-03-13T06:24:38.984Z,13.57
2017-03-13T06:25:19.478Z,13.48
2017-03-13T06:25:59.982Z,13.38
2017-03-13T06:26:40.482Z,13.48
2017-03-13T06:27:20.971Z,13.29
2017-03-13T06:28:01.450Z,13.58
2017-03-13T06:28:41.950Z,13.1
2017-03-13T06:29:22.454Z,13.1
2017-03-13T06:30:02.940Z,13.39
2017-03-13T06:30:43.426Z,13.58
2017-03-13T06:31:23.923Z,13.48
2017-03-13T06:32:04.415Z,13.39
2017-03-13T06:32:44.903Z,13
2017-03-13T06:33:25.388Z,13.58
2017-03-13T06:34:05.874Z,13.29
2017-03-13T06:34:46.577Z,13.2
2017-03-13T06:35:27.077Z,13.39
2017-03-13T06:36:07.588Z,13.39
2017-03-13T06:36:48.075Z,13.29
2017-03-13T06:37:28.570Z,13.29
2017-03-13T06:38:09.050Z,13.2
2017-03-13T06:38:49.557Z,13
2017-03-13T06:39:30.043Z,12.9
2017-03-13T06:40:10.529Z,12.9
2017-03-13T06:40:51.036Z,13
2017-03-13T06:41:31.520Z,12.9
2017-03-13T06:42:12.018Z,12.91
2017-03-13T06:42:52.519Z,13.01
2017-03-13T06:43:33.030Z,12.91
2017-03-13T06:44:13.517Z,12.72
2017-03-13T06:44:54.023Z,12.91
2017-03-13T06:45:34.513Z,12.91
2017-03-13T06:46:15.843Z,12.72
2017-03-13T06:46:56.344Z,12.72
2017-03-13T06:47:36.844Z,12.81
2017-03-13T06:48:17.328Z,12.91
2017-03-13T06:48:57.813Z,12.81
2017-03-13T06:49:38.303Z,12.62
2017-03-13T06:50:18.799Z,12.52
2017-03-13T06:50:59.307Z,12.62
2017-03-13T06:51:39.786Z,12.91
2017-03-13T06:52:20.290Z,12.62
2017-03-13T06:53:00.782Z,12.52
2017-03-13T06:53:41.289Z,12.72
2017-03-13T06:54:21.776Z,12.53
2017-03-13T06:55:02.267Z,12.53
2017-03-13T06:55:42.736Z,12.73
2017-03-13T06:56:23.223Z,12.63
2017-03-13T06:57:03.716Z,12.53
2017-03-13T06:57:44.216Z,12.63
2017-03-13T06:58:24.683Z,12.63
2017-03-13T06:59:05.179Z,12.63
2017-03-13T06:59:45.667Z,12.63
2017-03-13T07:00:26.186Z,12.63
2017-03-13T07:01:06.668Z,12.63
2017-03-13T07:01:47.144Z,12.53
2017-03-13T07:02:27.640Z,12.53
2017-03-13T07:03:08.129Z,12.73
2017-03-13T07:03:48.625Z,12.73
2017-03-13T07:04:29.117Z,12.63
2017-03-13T07:05:09.610Z,12.24
2017-03-13T07:05:50.128Z,12.43
2017-03-13T07:06:30.619Z,12.34
2017-03-13T07:07:11.109Z,12.34
2017-03-13T07:07:51.601Z,12.24
2017-03-13T07:08:32.086Z,12.24
2017-03-13T07:09:12.578Z,12.34
2017-03-13T07:09:53.237Z,12.24
2017-03-13T07:10:33.725Z,12.24
2017-03-13T07:11:14.209Z,12.34
2017-03-13T07:11:54.701Z,12.43
2017-03-13T07:12:35.209Z,12.34
2017-03-13T07:13:15.720Z,12.43
2017-03-13T07:13:56.207Z,12.24
2017-03-13T07:14:36.702Z,12.53
2017-03-13T07:15:17.201Z,12.73
2017-03-13T07:15:57.689Z,12.63
2017-03-13T07:16:38.182Z,12.53
2017-03-13T07:17:18.676Z,12.63
2017-03-13T07:17:59.173Z,12.63
2017-03-13T07:18:39.646Z,12.63
2017-03-13T07:19:20.155Z,12.63
2017-03-13T07:20:00.659Z,12.63
2017-03-13T07:20:41.157Z,12.73
2017-03-13T07:21:21.653Z,12.63
2017-03-13T07:22:02.140Z,12.53
2017-03-13T07:22:42.620Z,12.53
2017-03-13T07:23:23.106Z,12.53
2017-03-13T07:24:03.603Z,12.63
2017-03-13T07:24:44.094Z,12.73
2017-03-13T07:25:24.587Z,12.73
2017-03-13T07:26:05.069Z,12.63
2017-03-13T07:26:49.855Z,12.73
2017-03-13T07:27:28.621Z,12.63
2017-03-13T07:28:09.112Z,12.73
2017-03-13T07:28:49.706Z,12.73
2017-03-13T07:29:30.960Z,12.63
2017-03-13T07:30:11.443Z,12.53
2017-03-13T07:30:51.939Z,12.63
2017-03-13T07:31:33.083Z,12.63
2017-03-13T07:32:13.576Z,12.63
2017-03-13T07:32:54.086Z,12.63
2017-03-13T07:33:34.760Z,12.73
2017-03-13T07:34:15.362Z,12.53
2017-03-13T07:34:55.850Z,12.73
2017-03-13T07:35:36.375Z,12.53
2017-03-13T07:36:16.857Z,12.43
2017-03-13T07:36:57.350Z,12.73
2017-03-13T07:37:37.838Z,12.63
2017-03-13T07:38:18.326Z,12.53
2017-03-13T07:38:58.810Z,12.63
2017-03-13T07:39:39.323Z,12.73
2017-03-13T07:40:19.800Z,12.82
2017-03-13T07:41:00.283Z,12.82
2017-03-13T07:41:40.789Z,12.82
2017-03-13T07:42:21.276Z,13.01
2017-03-13T07:43:01.772Z,13.01
2017-03-13T07:43:43.094Z,12.73
2017-03-13T07:44:23.595Z,12.92
2017-03-13T07:45:04.090Z,12.92
2017-03-13T07:45:44.611Z,13.01
2017-03-13T07:46:25.093Z,12.92
2017-03-13T07:47:05.590Z,13.01
2017-03-13T07:47:46.085Z,13.01
2017-03-13T07:48:26.609Z,12.92
2017-03-13T07:49:07.087Z,13.01
2017-03-13T07:49:47.557Z,13.3
2017-03-13T07:50:28.035Z,13.3
2017-03-13T07:51:08.508Z,13.3
2017-03-13T07:51:48.955Z,13.3
2017-03-13T07:52:29.432Z,13.21
2017-03-13T07:53:09.891Z,13.3
2017-03-13T07:53:50.372Z,13.3
2017-03-13T07:54:30.876Z,13.4
2017-03-13T07:55:11.374Z,13.3
2017-03-13T07:55:51.838Z,13.49
2017-03-13T07:56:32.290Z,13.21
2017-03-13T07:57:12.767Z,13.3
2017-03-13T07:57:53.233Z,13.11
2017-03-13T07:58:33.730Z,13.49
2017-03-13T07:59:14.221Z,13.4
2017-03-13T07:59:54.717Z,13.49
2017-03-13T08:00:35.215Z,13.49
2017-03-13T08:01:16.357Z,13.49
2017-03-13T08:01:56.853Z,13.59
2017-03-13T08:02:37.346Z,13.4
2017-03-13T08:03:17.832Z,13.21
2017-03-13T08:03:58.331Z,13.21
2017-03-13T08:04:38.810Z,13.21
2017-03-13T08:05:19.347Z,13.21
2017-03-13T08:05:59.864Z,13.69
2017-03-13T08:06:40.375Z,13.78
2017-03-13T08:07:21.522Z,13.4
2017-03-13T08:08:02.008Z,13.59
2017-03-13T08:08:42.502Z,13.49
2017-03-13T08:09:23.041Z,13.49
2017-03-13T08:10:03.521Z,13.49
2017-03-13T08:10:44.010Z,13.78
2017-03-13T08:11:24.502Z,13.7
2017-03-13T08:12:05.837Z,13.59
2017-03-13T08:12:46.320Z,13.69
2017-03-13T08:13:26.803Z,13.49
2017-03-13T08:14:07.273Z,13.69
2017-03-13T08:14:47.762Z,13.7
2017-03-13T08:15:28.234Z,13.6
2017-03-13T08:16:08.708Z,13.6
2017-03-13T08:16:49.188Z,13.6
2017-03-13T08:17:29.680Z,13.6
2017-03-13T08:18:10.184Z,13.6
2017-03-13T08:18:50.674Z,13.6
2017-03-13T08:19:31.159Z,13.7
2017-03-13T08:20:12.555Z,13.7
2017-03-13T08:20:53.046Z,13.7
2017-03-13T08:21:33.784Z,13.7
2017-03-13T08:22:14.273Z,13.5
2017-03-13T08:22:54.766Z,13.5
2017-03-13T08:23:35.275Z,13.5
2017-03-13T08:24:15.768Z,13.7
2017-03-13T08:24:56.272Z,13.5
2017-03-13T08:25:36.778Z,13.6
2017-03-13T08:26:17.278Z,13.6
2017-03-13T08:26:57.777Z,13.6
2017-03-13T08:27:38.266Z,13.5
2017-03-13T08:28:18.762Z,13.6
2017-03-13T08:28:59.257Z,13.98
2017-03-13T08:29:40.655Z,13.98
2017-03-13T08:30:21.162Z,13.89
2017-03-13T08:31:01.667Z,13.7
2017-03-13T08:31:42.147Z,13.79
2017-03-13T08:32:22.671Z,13.89
2017-03-13T08:33:03.148Z,13.7
2017-03-13T08:33:43.629Z,13.99
2017-03-13T08:34:24.142Z,13.8
2017-03-13T08:35:05.423Z,13.9
2017-03-13T08:35:45.921Z,13.41
2017-03-13T08:36:26.409Z,13.51
2017-03-13T08:37:06.903Z,13.6
2017-03-13T08:37:47.412Z,13.7
2017-03-13T08:38:27.989Z,13.51
2017-03-13T08:39:08.512Z,13.51
2017-03-13T08:39:49.002Z,13.7
2017-03-13T08:40:29.490Z,13.6
2017-03-13T08:41:09.974Z,13.6
2017-03-13T08:41:50.453Z,13.51
2017-03-13T08:42:30.952Z,13.51
2017-03-13T08:43:11.443Z,13.6
2017-03-13T08:43:51.939Z,13.6
2017-03-13T08:44:32.440Z,13.7
2017-03-13T08:45:12.989Z,13.9